Time;durP1;ratioP1;P1;durP2;ratioP2;P2;SDS_P1;SDS_P2;PMS_P1;PMS_P2;Temp;Humidity;BMP_temperature;BMP_pressure;BME280_temperature;BME280_humidity;BME280_pressure;Samples;Min_cycle;Max_cycle;Signal;HPM_P1;HPM_P2
2021/05/28 00:00:06;;;;;;;8.93;5.60;;;11.00;99.90;;;;;;5031402;28;20097;-45
2021/05/28 00:02:32;;;;;;;8.48;5.13;;;11.00;99.90;;;;;;5031241;28;20045;-45
2021/05/28 00:04:57;;;;;;;7.00;5.15;;;11.00;99.90;;;;;;5031072;28;20672;-45
2021/05/28 00:07:23;;;;;;;8.73;5.07;;;11.00;99.90;;;;;;5030680;28;20030;-46
2021/05/28 00:09:48;;;;;;;9.70;4.82;;;11.00;99.90;;;;;;5030838;28;20029;-44
2021/05/28 00:12:14;;;;;;;6.97;4.68;;;11.00;99.90;;;;;;5029793;28;20103;-44
2021/05/28 00:14:40;;;;;;;7.22;5.57;;;11.00;99.90;;;;;;5030946;28;20036;-44
2021/05/28 00:17:06;;;;;;;7.72;5.40;;;10.90;99.90;;;;;;5030907;28;20029;-44
2021/05/28 00:19:32;;;;;;;5.53;4.90;;;10.90;99.90;;;;;;5030258;28;20018;-45
2021/05/28 00:21:57;;;;;;;10.05;5.53;;;10.90;99.90;;;;;;5030927;28;20487;-44
2021/05/28 00:24:23;;;;;;;6.40;4.75;;;10.90;99.90;;;;;;5030739;28;20391;-45
2021/05/28 00:26:48;;;;;;;7.45;4.53;;;10.90;99.90;;;;;;5030909;28;20532;-45
2021/05/28 00:29:14;;;;;;;6.57;5.15;;;10.90;99.90;;;;;;5030142;28;20040;-45
2021/05/28 00:31:39;;;;;;;9.18;4.78;;;10.90;99.90;;;;;;5030753;28;20110;-45
2021/05/28 00:34:05;;;;;;;7.55;5.32;;;10.80;99.90;;;;;;5030672;28;20160;-44
2021/05/28 00:36:30;;;;;;;5.38;4.32;;;10.90;99.90;;;;;;5030697;28;20291;-45
2021/05/28 00:38:56;;;;;;;7.70;4.50;;;10.80;99.90;;;;;;5030082;28;20034;-45
2021/05/28 00:41:21;;;;;;;9.27;4.70;;;10.80;99.90;;;;;;5030666;28;20025;-44
2021/05/28 00:43:47;;;;;;;6.93;4.03;;;10.80;99.90;;;;;;5030513;28;20056;-45
2021/05/28 00:46:12;;;;;;;4.95;4.13;;;10.80;99.90;;;;;;5030421;28;20291;-45
2021/05/28 00:48:38;;;;;;;8.57;4.70;;;10.80;99.90;;;;;;5029587;28;20301;-44
2021/05/28 00:51:05;;;;;;;5.13;4.47;;;10.80;99.90;;;;;;5030278;28;20410;-45
2021/05/28 00:53:31;;;;;;;9.95;4.72;;;10.70;99.90;;;;;;5030362;28;20025;-45
2021/05/28 00:55:58;;;;;;;7.43;4.68;;;10.70;99.90;;;;;;5030212;28;20703;-45
2021/05/28 00:58:24;;;;;;;4.72;3.78;;;10.70;99.90;;;;;;5029464;28;20026;-44
2021/05/28 01:00:50;;;;;;;7.60;4.13;;;10.70;99.90;;;;;;5030121;28;20040;-45
2021/05/28 01:03:16;;;;;;;4.50;3.42;;;10.60;99.90;;;;;;5029644;28;20091;-45
2021/05/28 01:05:42;;;;;;;9.35;3.53;;;10.60;99.90;;;;;;5030183;28;20689;-46
2021/05/28 01:08:07;;;;;;;4.97;3.58;;;10.60;99.90;;;;;;5027986;28;20462;-45
2021/05/28 01:10:33;;;;;;;6.10;4.10;;;10.60;99.90;;;;;;5029849;28;20032;-45
2021/05/28 01:13:07;;;;;;;7.28;3.72;;;10.50;99.90;;;;;;5029835;28;20400;-46
2021/05/28 01:15:33;;;;;;;4.85;4.05;;;10.60;99.90;;;;;;5029799;28;20037;-45
2021/05/28 01:17:59;;;;;;;4.90;3.70;;;10.50;99.90;;;;;;5029077;28;20549;-44
2021/05/28 01:20:24;;;;;;;4.90;3.95;;;10.50;99.90;;;;;;5029790;28;20033;-45
2021/05/28 01:22:52;;;;;;;5.93;4.22;;;10.50;99.90;;;;;;5029608;28;20407;-45
2021/05/28 01:25:19;;;;;;;5.47;4.35;;;10.50;99.90;;;;;;5029672;28;20017;-46
2021/05/28 01:27:44;;;;;;;8.93;5.32;;;10.50;99.90;;;;;;5029047;28;20124;-44
2021/05/28 01:30:11;;;;;;;6.70;5.00;;;10.50;99.90;;;;;;5029583;28;20467;-45
2021/05/28 01:32:36;;;;;;;7.47;4.90;;;10.50;99.90;;;;;;5029341;28;20284;-44
2021/05/28 01:35:03;;;;;;;9.02;4.40;;;10.50;99.90;;;;;;5029312;28;20129;-45
2021/05/28 01:37:29;;;;;;;15.98;6.35;;;10.50;99.90;;;;;;5028737;28;20025;-45
2021/05/28 01:39:54;;;;;;;12.40;6.07;;;10.50;99.90;;;;;;5029274;28;20037;-47
2021/05/28 01:42:20;;;;;;;8.23;5.95;;;10.50;99.90;;;;;;5029549;28;20482;-45
2021/05/28 01:44:45;;;;;;;11.40;6.88;;;10.50;99.90;;;;;;5029126;28;20025;-45
2021/05/28 01:47:13;;;;;;;10.75;6.30;;;10.50;99.90;;;;;;5027747;28;20026;-45
2021/05/28 01:49:43;;;;;;;10.23;5.90;;;10.50;99.90;;;;;;5028730;28;20049;-46
2021/05/28 01:52:09;;;;;;;8.83;6.07;;;10.40;99.90;;;;;;5029555;28;20026;-45
2021/05/28 01:54:37;;;;;;;13.30;7.30;;;10.50;99.90;;;;;;5029149;28;20264;-45
2021/05/28 01:57:03;;;;;;;18.00;8.70;;;10.50;99.90;;;;;;5029108;28;20183;-46
2021/05/28 01:59:29;;;;;;;10.65;7.25;;;10.50;99.90;;;;;;5028595;28;20033;-45
2021/05/28 02:01:55;;;;;;;13.65;8.57;;;10.40;99.90;;;;;;5029006;28;20026;-44
2021/05/28 02:04:21;;;;;;;16.88;9.05;;;10.50;99.90;;;;;;5027846;28;20068;-45
2021/05/28 02:06:47;;;;;;;13.05;7.63;;;10.50;99.90;;;;;;5029281;28;20060;-45
2021/05/28 02:09:13;;;;;;;13.18;8.40;;;10.50;99.90;;;;;;5028661;28;20049;-47
2021/05/28 02:11:39;;;;;;;17.00;8.82;;;10.50;99.90;;;;;;5027813;28;20112;-45
2021/05/28 02:14:05;;;;;;;10.35;7.40;;;10.50;99.90;;;;;;5027647;28;20076;-48
2021/05/28 02:16:32;;;;;;;22.48;9.32;;;10.50;99.90;;;;;;5028800;28;20109;-46
2021/05/28 02:18:58;;;;;;;14.23;8.90;;;10.50;99.90;;;;;;5026951;28;20391;-45
2021/05/28 02:21:23;;;;;;;11.85;8.48;;;10.50;99.90;;;;;;5028799;28;20024;-45
2021/05/28 02:23:49;;;;;;;13.43;8.93;;;10.60;99.90;;;;;;5028766;28;20021;-44
2021/05/28 02:26:15;;;;;;;19.02;8.50;;;10.50;99.90;;;;;;5029141;28;20099;-47
2021/05/28 02:28:40;;;;;;;18.83;9.20;;;10.50;99.90;;;;;;5028399;28;20112;-44
2021/05/28 02:31:06;;;;;;;21.77;10.05;;;10.50;99.90;;;;;;5028605;28;20104;-46
2021/05/28 02:33:31;;;;;;;17.80;8.90;;;10.50;99.90;;;;;;5028687;28;20075;-46
2021/05/28 02:35:59;;;;;;;17.90;9.35;;;10.50;99.90;;;;;;5028543;28;20021;-47
2021/05/28 02:38:24;;;;;;;16.30;9.20;;;10.50;99.90;;;;;;5027743;28;20052;-45
2021/05/28 02:40:50;;;;;;;19.38;10.02;;;10.50;99.90;;;;;;5028353;28;20060;-44
2021/05/28 02:43:15;;;;;;;22.60;9.70;;;10.50;99.90;;;;;;5027257;28;20450;-46
2021/05/28 02:45:41;;;;;;;18.45;9.35;;;10.50;99.90;;;;;;5028489;28;20022;-45
2021/05/28 02:48:06;;;;;;;18.25;9.23;;;10.50;99.90;;;;;;5027942;28;20431;-47
2021/05/28 02:50:32;;;;;;;18.63;9.88;;;10.50;99.90;;;;;;5028196;28;20038;-44
2021/05/28 02:53:01;;;;;;;24.52;10.70;;;10.50;99.90;;;;;;5028462;28;20125;-44
2021/05/28 02:55:28;;;;;;;18.70;10.35;;;10.50;99.90;;;;;;5028267;28;20083;-45
2021/05/28 02:57:54;;;;;;;15.73;9.63;;;10.40;99.90;;;;;;5027021;28;20029;-44
2021/05/28 03:00:21;;;;;;;21.88;9.88;;;10.50;99.90;;;;;;5028135;28;20117;-46
2021/05/28 03:02:47;;;;;;;16.30;9.57;;;10.50;99.90;;;;;;5028516;28;20100;-47
2021/05/28 03:05:13;;;;;;;17.10;11.10;;;10.40;99.90;;;;;;5028610;28;20563;-46
2021/05/28 03:07:39;;;;;;;19.63;11.10;;;10.40;99.90;;;;;;5027922;28;20026;-46
2021/05/28 03:10:05;;;;;;;20.73;9.70;;;10.40;99.90;;;;;;5027099;28;20064;-44
2021/05/28 03:12:30;;;;;;;17.17;11.27;;;10.40;99.90;;;;;;5026933;28;20029;-45
2021/05/28 03:14:56;;;;;;;21.13;10.27;;;10.40;99.90;;;;;;5028569;28;20033;-44
2021/05/28 03:17:22;;;;;;;21.95;10.50;;;10.40;99.90;;;;;;5028397;28;20309;-44
2021/05/28 03:19:48;;;;;;;21.38;10.32;;;10.40;99.90;;;;;;5028113;28;20033;-44
2021/05/28 03:22:34;;;;;;;20.95;11.00;;;10.40;99.90;;;;;;5028387;28;20032;-44
2021/05/28 03:25:03;;;;;;;22.17;10.98;;;10.40;99.90;;;;;;5028394;28;20226;-47
2021/05/28 03:27:28;;;;;;;23.75;11.48;;;10.40;99.90;;;;;;5031095;28;20022;-46
2021/05/28 03:29:54;;;;;;;19.38;11.70;;;10.30;99.90;;;;;;5031860;28;20051;-44
2021/05/28 03:32:19;;;;;;;17.80;10.85;;;10.30;99.90;;;;;;5032104;28;20037;-44
2021/05/28 03:34:45;;;;;;;20.58;11.38;;;10.20;99.90;;;;;;5031616;28;20025;-45
2021/05/28 03:37:10;;;;;;;22.33;10.80;;;10.30;99.90;;;;;;5031517;28;20032;-44
2021/05/28 03:39:36;;;;;;;22.48;10.25;;;10.30;99.90;;;;;;5030529;28;20025;-44
2021/05/28 03:42:02;;;;;;;20.15;11.10;;;10.30;99.90;;;;;;5031415;28;20092;-45
2021/05/28 03:44:27;;;;;;;28.02;11.65;;;10.30;99.90;;;;;;5031503;28;20075;-45
2021/05/28 03:46:54;;;;;;;20.77;10.23;;;10.30;99.90;;;;;;5031359;28;20104;-45
2021/05/28 03:49:19;;;;;;;24.20;10.85;;;10.30;99.90;;;;;;5030621;28;20036;-44
2021/05/28 03:51:45;;;;;;;22.95;10.75;;;10.30;99.90;;;;;;5031243;28;20403;-46
2021/05/28 03:54:10;;;;;;;18.27;10.88;;;10.30;99.90;;;;;;5031206;28;20116;-43
2021/05/28 03:56:36;;;;;;;21.10;11.43;;;10.30;99.90;;;;;;5031436;28;20574;-45
2021/05/28 03:59:02;;;;;;;21.05;10.05;;;10.30;99.90;;;;;;5030433;28;20021;-44
2021/05/28 04:01:27;;;;;;;23.20;11.25;;;10.40;99.90;;;;;;5029764;28;20475;-45
2021/05/28 04:03:53;;;;;;;21.40;11.27;;;10.40;99.90;;;;;;5029690;28;20033;-46
2021/05/28 04:06:19;;;;;;;16.45;9.48;;;10.30;99.90;;;;;;5031002;28;20076;-45
2021/05/28 04:08:45;;;;;;;19.90;10.18;;;10.30;99.90;;;;;;5030696;28;20169;-47
2021/05/28 04:11:11;;;;;;;18.23;10.95;;;10.30;99.90;;;;;;5030844;28;20048;-45
2021/05/28 04:13:36;;;;;;;17.80;10.73;;;10.30;99.90;;;;;;5031131;28;20029;-45
2021/05/28 04:16:02;;;;;;;25.27;10.60;;;10.30;99.90;;;;;;5031028;28;20068;-46
2021/05/28 04:18:28;;;;;;;22.83;9.90;;;10.30;99.90;;;;;;5030354;28;20158;-46
2021/05/28 04:20:53;;;;;;;19.13;10.18;;;10.30;99.90;;;;;;5029604;28;20423;-45
2021/05/28 04:23:19;;;;;;;16.20;9.30;;;10.40;99.90;;;;;;5030863;28;20021;-45
2021/05/28 04:25:48;;;;;;;19.55;10.50;;;10.30;99.90;;;;;;5031354;28;20017;-45
2021/05/28 04:28:15;;;;;;;25.45;10.35;;;10.30;99.90;;;;;;5030397;28;20031;-44
2021/05/28 04:30:40;;;;;;;20.90;10.13;;;10.30;99.90;;;;;;5030822;28;20467;-45
2021/05/28 04:33:06;;;;;;;17.83;10.05;;;10.20;99.90;;;;;;5030875;28;20334;-47
2021/05/28 04:35:32;;;;;;;15.38;9.95;;;10.20;99.90;;;;;;5030788;28;20052;-45
2021/05/28 04:37:58;;;;;;;21.98;10.68;;;10.20;99.90;;;;;;5029241;28;20034;-44
2021/05/28 04:40:24;;;;;;;15.18;10.38;;;10.30;99.90;;;;;;5030761;28;20083;-44
2021/05/28 04:42:49;;;;;;;15.75;10.02;;;10.30;99.90;;;;;;5030435;28;20037;-45
2021/05/28 04:45:15;;;;;;;16.77;9.55;;;10.30;99.90;;;;;;5029160;28;20423;-47
2021/05/28 04:47:41;;;;;;;16.08;10.27;;;10.40;99.90;;;;;;5029738;28;20068;-45
2021/05/28 04:50:07;;;;;;;23.80;10.05;;;10.40;99.90;;;;;;5030154;28;20047;-46
2021/05/28 04:52:32;;;;;;;21.08;9.90;;;10.40;99.90;;;;;;5030018;28;20041;-45
2021/05/28 04:54:58;;;;;;;17.13;9.43;;;10.50;99.90;;;;;;5028734;28;20040;-46
2021/05/28 04:57:24;;;;;;;17.02;9.60;;;10.50;99.90;;;;;;5029577;28;20033;-45
2021/05/28 04:59:50;;;;;;;22.63;10.23;;;10.50;99.90;;;;;;5030155;28;20471;-47
2021/05/28 05:02:17;;;;;;;23.30;10.63;;;10.50;99.90;;;;;;5030025;28;20076;-46
2021/05/28 05:04:42;;;;;;;26.30;10.43;;;10.60;99.90;;;;;;5029849;28;20044;-46
2021/05/28 05:07:09;;;;;;;17.60;10.48;;;10.60;99.90;;;;;;5029941;28;20053;-47
2021/05/28 05:09:34;;;;;;;23.00;11.07;;;10.60;99.90;;;;;;5029333;28;20471;-46
2021/05/28 05:12:00;;;;;;;19.23;10.30;;;10.70;99.90;;;;;;5029787;28;20109;-46
2021/05/28 05:14:25;;;;;;;16.13;10.15;;;10.80;99.90;;;;;;5028410;28;20057;-45
2021/05/28 05:16:50;;;;;;;18.05;10.55;;;10.80;99.90;;;;;;5030074;28;20029;-44
2021/05/28 05:19:16;;;;;;;18.67;11.13;;;10.80;99.90;;;;;;5028951;28;20567;-45
2021/05/28 05:21:41;;;;;;;21.42;10.57;;;10.80;99.90;;;;;;5029671;28;20056;-46
2021/05/28 05:24:08;;;;;;;14.73;9.32;;;10.90;99.90;;;;;;5029566;28;20065;-48
2021/05/28 05:26:34;;;;;;;17.65;9.50;;;10.90;99.90;;;;;;5029627;28;20415;-48
2021/05/28 05:29:00;;;;;;;18.13;10.43;;;10.90;99.90;;;;;;5028929;28;20029;-46
2021/05/28 05:31:25;;;;;;;18.55;10.65;;;10.80;99.90;;;;;;5029597;28;20029;-46
2021/05/28 05:33:51;;;;;;;17.83;9.35;;;10.90;99.90;;;;;;5029960;28;20044;-48
2021/05/28 05:36:17;;;;;;;20.52;9.40;;;10.90;99.90;;;;;;5028013;28;20479;-45
2021/05/28 05:38:42;;;;;;;17.27;9.30;;;10.80;99.90;;;;;;5029099;28;20475;-45
2021/05/28 05:41:08;;;;;;;17.63;9.02;;;10.90;99.90;;;;;;5029502;28;20057;-48
2021/05/28 05:43:33;;;;;;;15.18;10.68;;;10.90;99.90;;;;;;5028005;28;20434;-44
2021/05/28 05:46:01;;;;;;;15.75;9.80;;;10.90;99.90;;;;;;5029198;28;20029;-44
2021/05/28 05:48:27;;;;;;;22.80;10.30;;;11.00;99.90;;;;;;5028202;28;20184;-45
2021/05/28 05:50:52;;;;;;;19.98;11.20;;;11.20;99.90;;;;;;5028943;28;20037;-44
2021/05/28 05:53:18;;;;;;;15.73;10.02;;;11.20;99.90;;;;;;5029259;28;20029;-48
2021/05/28 05:55:43;;;;;;;20.08;9.82;;;11.20;99.90;;;;;;5029227;28;20034;-44
2021/05/28 05:58:09;;;;;;;18.63;10.02;;;11.30;99.90;;;;;;5028373;28;20403;-47
2021/05/28 06:00:34;;;;;;;21.85;11.13;;;11.30;99.90;;;;;;5028973;28;20099;-46
2021/05/28 06:03:00;;;;;;;16.67;10.05;;;11.20;99.90;;;;;;5028949;28;20055;-46
2021/05/28 06:05:25;;;;;;;16.20;10.13;;;11.20;99.90;;;;;;5028968;28;20031;-45
2021/05/28 06:07:51;;;;;;;18.58;9.82;;;11.20;99.90;;;;;;5028511;28;20040;-45
2021/05/28 06:10:16;;;;;;;21.27;9.57;;;11.30;99.90;;;;;;5028780;28;20092;-46
2021/05/28 06:12:42;;;;;;;19.67;9.57;;;11.40;99.90;;;;;;5028837;28;20037;-47
2021/05/28 06:15:07;;;;;;;17.88;9.27;;;11.50;99.90;;;;;;5029045;28;20044;-44
2021/05/28 06:17:33;;;;;;;19.45;9.82;;;11.50;99.90;;;;;;5028551;28;20037;-45
2021/05/28 06:19:58;;;;;;;16.55;9.13;;;11.70;99.90;;;;;;5028987;28;20056;-48
2021/05/28 06:22:24;;;;;;;19.77;9.68;;;11.80;99.90;;;;;;5027576;28;20029;-45
2021/05/28 06:24:49;;;;;;;18.33;9.65;;;11.90;99.90;;;;;;5028917;28;20387;-46
2021/05/28 06:27:15;;;;;;;14.70;9.18;;;11.90;99.90;;;;;;5028619;28;20072;-46
2021/05/28 06:29:41;;;;;;;19.80;10.68;;;11.90;99.90;;;;;;5028342;28;20029;-45
2021/05/28 06:32:06;;;;;;;16.52;9.95;;;11.90;99.90;;;;;;5028768;28;20036;-45
2021/05/28 06:34:32;;;;;;;19.98;9.32;;;11.90;99.90;;;;;;5028622;28;20037;-45
2021/05/28 06:36:58;;;;;;;13.25;8.27;;;11.90;99.90;;;;;;5028660;28;20040;-45
2021/05/28 06:39:24;;;;;;;17.48;9.07;;;12.00;99.90;;;;;;5028039;28;20117;-46
2021/05/28 06:41:49;;;;;;;16.80;8.35;;;12.00;99.90;;;;;;5028794;28;20113;-44
2021/05/28 06:44:15;;;;;;;15.93;8.85;;;12.10;99.90;;;;;;5029241;28;20061;-45
2021/05/28 06:46:40;;;;;;;19.83;8.32;;;12.10;99.90;;;;;;5028652;28;20032;-45
2021/05/28 06:49:06;;;;;;;10.60;7.05;;;12.20;99.90;;;;;;5028267;28;20022;-45
2021/05/28 06:51:31;;;;;;;12.52;7.57;;;12.30;99.90;;;;;;5028808;28;20090;-46
2021/05/28 06:53:57;;;;;;;13.57;7.07;;;12.40;99.90;;;;;;5028844;28;20518;-45
2021/05/28 06:56:22;;;;;;;10.10;7.28;;;12.30;99.90;;;;;;5028986;28;20279;-45
2021/05/28 06:58:49;;;;;;;11.63;6.82;;;12.40;99.90;;;;;;5028003;28;20026;-45
2021/05/28 07:01:16;;;;;;;12.63;7.03;;;12.40;99.90;;;;;;5030280;28;20533;-46
2021/05/28 07:03:42;;;;;;;14.02;6.55;;;12.70;99.90;;;;;;5032776;28;20032;-46
2021/05/28 07:06:08;;;;;;;10.55;7.18;;;12.70;99.90;;;;;;5032681;28;20455;-47
2021/05/28 07:08:33;;;;;;;10.43;7.25;;;12.80;99.90;;;;;;5031870;28;20049;-45
2021/05/28 07:10:59;;;;;;;12.45;7.95;;;12.90;99.90;;;;;;5032294;28;20068;-45
2021/05/28 07:13:24;;;;;;;12.52;7.28;;;13.10;99.90;;;;;;5032668;28;20380;-45
2021/05/28 07:15:51;;;;;;;11.00;6.43;;;13.30;99.90;;;;;;5032126;28;20029;-45
2021/05/28 07:18:17;;;;;;;16.17;6.32;;;13.40;99.90;;;;;;5031412;28;20039;-45
2021/05/28 07:20:43;;;;;;;9.65;6.15;;;13.60;99.90;;;;;;5031994;28;20116;-45
2021/05/28 07:23:08;;;;;;;15.23;5.82;;;13.80;99.90;;;;;;5032074;28;20501;-45
2021/05/28 07:25:34;;;;;;;10.45;6.47;;;13.70;99.90;;;;;;5032081;28;20048;-45
2021/05/28 07:28:00;;;;;;;13.30;6.05;;;13.60;99.90;;;;;;5031751;28;20029;-45
2021/05/28 07:30:25;;;;;;;7.68;4.78;;;13.60;99.90;;;;;;5032321;28;20396;-46
2021/05/28 07:32:51;;;;;;;7.97;5.43;;;13.60;99.90;;;;;;5030655;28;20021;-45
2021/05/28 07:35:16;;;;;;;9.23;6.18;;;13.70;99.90;;;;;;5031911;28;20041;-45
2021/05/28 07:37:42;;;;;;;10.80;6.68;;;13.60;99.90;;;;;;5031429;28;20033;-46
2021/05/28 07:40:09;;;;;;;10.38;6.03;;;13.60;99.90;;;;;;5031810;28;20370;-44
2021/05/28 07:42:35;;;;;;;10.80;5.93;;;13.60;99.90;;;;;;5031653;28;20086;-45
2021/05/28 07:45:00;;;;;;;16.15;6.10;;;13.70;99.90;;;;;;5031764;28;20488;-46
2021/05/28 07:47:26;;;;;;;10.38;4.70;;;13.80;99.90;;;;;;5029535;28;20025;-47
2021/05/28 07:49:51;;;;;;;16.90;5.22;;;13.90;99.90;;;;;;5031598;28;20037;-46
2021/05/28 07:52:17;;;;;;;13.02;5.72;;;14.20;99.90;;;;;;5031478;28;20029;-46
2021/05/28 07:54:42;;;;;;;10.13;5.75;;;14.40;99.90;;;;;;5031556;28;20036;-46
2021/05/28 07:57:08;;;;;;;11.25;5.50;;;14.50;99.90;;;;;;5031363;28;20037;-45
2021/05/28 07:59:33;;;;;;;10.48;5.47;;;14.60;99.90;;;;;;5030638;28;20075;-46
2021/05/28 08:01:59;;;;;;;8.43;5.43;;;14.70;99.90;;;;;;5031106;28;20430;-45
2021/05/28 08:04:24;;;;;;;12.80;5.45;;;14.80;99.90;;;;;;5029765;28;20483;-45
2021/05/28 08:06:50;;;;;;;10.45;4.95;;;14.90;99.90;;;;;;5031081;28;20025;-45
2021/05/28 08:09:15;;;;;;;7.88;4.57;;;15.20;99.90;;;;;;5029116;28;20029;-45
2021/05/28 08:11:42;;;;;;;7.47;4.30;;;15.60;99.90;;;;;;5029670;28;20030;-45
2021/05/28 08:14:08;;;;;;;8.93;4.10;;;15.80;99.90;;;;;;5030910;28;20120;-46
2021/05/28 08:16:33;;;;;;;9.68;3.90;;;16.10;99.90;;;;;;5030829;28;20359;-45
2021/05/28 08:18:59;;;;;;;8.13;3.78;;;17.10;99.90;;;;;;5030492;28;20117;-48
2021/05/28 08:21:25;;;;;;;7.80;4.15;;;18.00;99.90;;;;;;5031417;28;20387;-46
2021/05/28 08:23:51;;;;;;;7.18;4.18;;;19.00;99.70;;;;;;5031001;28;20375;-46
2021/05/28 08:26:16;;;;;;;7.15;3.65;;;19.90;93.40;;;;;;5030872;28;20026;-47
2021/05/28 08:28:42;;;;;;;6.90;3.38;;;20.40;92.60;;;;;;5030126;28;20476;-46
2021/05/28 08:31:08;;;;;;;4.80;3.25;;;21.00;89.70;;;;;;5031187;28;20097;-46
2021/05/28 08:33:34;;;;;;;5.57;3.33;;;21.10;76.30;;;;;;5030824;28;20112;-48
2021/05/28 08:36:00;;;;;;;5.70;2.78;;;21.50;75.10;;;;;;5030986;28;20656;-46
2021/05/28 08:38:25;;;;;;;4.18;2.53;;;21.90;73.50;;;;;;5030021;28;20057;-44
2021/05/28 08:40:52;;;;;;;6.78;2.78;;;22.80;67.90;;;;;;5030091;28;20072;-43
2021/05/28 08:43:17;;;;;;;7.20;2.60;;;22.80;68.20;;;;;;5030759;28;20486;-44
2021/05/28 08:45:45;;;;;;;9.60;3.83;;;23.20;66.50;;;;;;5030322;28;20079;-45
2021/05/28 08:48:13;;;;;;;8.82;3.10;;;23.00;64.40;;;;;;5029698;28;20095;-46
2021/05/28 08:50:39;;;;;;;7.10;3.53;;;23.30;62.50;;;;;;5030164;28;20034;-44
2021/05/28 08:53:07;;;;;;;4.53;2.67;;;23.10;63.30;;;;;;5030569;28;20619;-44
2021/05/28 08:55:35;;;;;;;6.30;3.30;;;23.90;64.60;;;;;;5030464;28;20021;-44
2021/05/28 08:58:08;;;;;;;7.65;3.30;;;24.00;61.00;;;;;;5028436;28;20022;-45
2021/05/28 09:00:35;;;;;;;5.93;3.70;;;23.50;62.90;;;;;;5030427;28;20026;-45
2021/05/28 09:03:18;;;;;;;7.25;3.58;;;23.80;60.70;;;;;;5030845;28;20180;-46
2021/05/28 09:05:43;;;;;;;4.45;2.60;;;23.80;62.00;;;;;;5030358;28;20029;-44
2021/05/28 09:08:10;;;;;;;6.85;3.03;;;24.70;58.40;;;;;;5029789;28;20049;-45
2021/05/28 09:10:40;;;;;;;4.97;2.67;;;25.10;58.80;;;;;;5030292;28;20021;-47
2021/05/28 09:13:07;;;;;;;3.35;2.58;;;26.40;55.50;;;;;;5030077;28;20076;-45
2021/05/28 09:15:33;;;;;;;5.63;2.60;;;26.50;53.00;;;;;;5030193;28;20067;-48
2021/05/28 09:17:58;;;;;;;5.75;2.72;;;25.60;55.50;;;;;;5029306;28;20495;-45
2021/05/28 09:20:25;;;;;;;9.75;3.00;;;24.70;53.10;;;;;;5029659;28;20072;-44
2021/05/28 09:23:10;;;;;;;4.90;2.90;;;24.80;58.00;;;;;;5029457;28;20183;-47
2021/05/28 09:25:56;;;;;;;5.75;2.75;;;25.70;52.60;;;;;;5029642;28;20252;-45
2021/05/28 09:28:22;;;;;;;5.20;2.45;;;24.30;54.00;;;;;;5029063;28;20024;-45
2021/05/28 09:30:56;;;;;;;4.50;2.03;;;24.70;56.40;;;;;;5029524;28;20514;-45
2021/05/28 09:33:23;;;;;;;6.18;2.70;;;25.50;57.00;;;;;;5029578;28;20109;-47
2021/05/28 09:35:50;;;;;;;4.35;2.20;;;26.50;52.80;;;;;;5029417;28;20034;-46
2021/05/28 09:38:23;;;;;;;4.90;2.50;;;26.60;51.40;;;;;;5028728;28;20132;-45
2021/05/28 09:40:49;;;;;;;5.28;2.60;;;26.50;50.00;;;;;;5029146;28;20029;-48
2021/05/28 09:43:22;;;;;;;3.50;2.28;;;25.10;50.90;;;;;;5029557;28;20482;-45
2021/05/28 09:45:48;;;;;;;10.75;2.80;;;25.20;52.30;;;;;;5029185;28;20030;-46
2021/05/28 09:48:14;;;;;;;3.75;2.10;;;25.60;51.80;;;;;;5028508;28;20329;-46
2021/05/28 09:50:51;;;;;;;4.13;2.30;;;25.90;52.50;;;;;;5028936;28;20040;-46
2021/05/28 09:53:28;;;;;;;7.18;2.53;;;27.20;50.80;;;;;;5029360;28;20018;-47
2021/05/28 09:55:54;;;;;;;4.47;2.45;;;28.30;48.90;;;;;;5029158;28;20093;-44
2021/05/28 09:58:20;;;;;;;2.90;2.00;;;28.70;44.50;;;;;;5028365;28;20108;-45
2021/05/28 10:00:45;;;;;;;6.07;2.72;;;28.90;43.00;;;;;;5028783;28;20034;-45
2021/05/28 10:03:22;;;;;;;4.40;2.85;;;28.00;42.30;;;;;;5028890;28;20483;-47
2021/05/28 10:05:53;;;;;;;6.25;2.28;;;28.20;45.70;;;;;;5027505;28;20056;-47
2021/05/28 10:08:21;;;;;;;3.83;2.30;;;28.00;48.00;;;;;;5028125;28;20083;-46
2021/05/28 10:10:49;;;;;;;7.97;3.05;;;27.60;44.50;;;;;;5028667;28;20026;-44
2021/05/28 10:13:16;;;;;;;2.63;2.05;;;26.80;43.90;;;;;;5027337;28;20026;-44
2021/05/28 10:15:44;;;;;;;4.45;2.35;;;27.00;48.70;;;;;;5028848;28;20032;-45
2021/05/28 10:18:10;;;;;;;5.40;2.67;;;27.20;46.90;;;;;;5028358;28;20108;-45
2021/05/28 10:20:40;;;;;;;3.92;2.45;;;27.40;48.30;;;;;;5028970;28;20026;-44
2021/05/28 10:23:07;;;;;;;5.57;2.80;;;27.30;46.00;;;;;;5028730;28;20084;-46
2021/05/28 10:25:33;;;;;;;5.72;2.58;;;26.60;47.30;;;;;;5027459;28;20037;-48
2021/05/28 10:28:01;;;;;;;5.60;3.08;;;26.90;47.10;;;;;;5028350;28;20033;-46
2021/05/28 10:30:38;;;;;;;4.38;2.88;;;27.20;46.50;;;;;;5028755;28;20487;-48
2021/05/28 10:33:23;;;;;;;7.38;3.13;;;26.80;50.00;;;;;;5028999;28;20033;-44
2021/05/28 10:35:51;;;;;;;6.65;3.35;;;26.30;48.60;;;;;;5027515;28;20029;-46
2021/05/28 10:38:48;;;;;;;6.20;3.88;;;24.90;49.20;;;;;;5027707;28;20530;-46
2021/05/28 10:41:14;;;;;;;5.03;4.03;;;24.10;51.90;;;;;;5028599;28;20529;-46
2021/05/28 10:43:48;;;;;;;7.10;3.60;;;23.60;53.30;;;;;;5028444;28;20046;-46
2021/05/28 10:46:15;;;;;;;7.30;4.25;;;23.40;56.70;;;;;;5027104;28;20021;-45
2021/05/28 10:48:41;;;;;;;8.35;4.70;;;24.50;54.20;;;;;;5027639;28;20686;-46
2021/05/28 10:51:33;;;;;;;7.07;4.32;;;25.30;52.00;;;;;;5027061;28;20100;-46
2021/05/28 10:53:58;;;;;;;6.47;5.22;;;25.80;52.80;;;;;;4997786;28;20045;-47
2021/05/28 10:56:36;;;;;;;10.90;6.32;;;24.30;50.60;;;;;;5027101;28;20040;-49
2021/05/28 10:59:16;;;;;;;8.93;6.38;;;23.50;53.10;;;;;;5026311;28;20029;-49
2021/05/28 11:01:48;;;;;;;6.65;5.28;;;23.60;56.20;;;;;;5028362;28;20029;-49
2021/05/28 11:04:27;;;;;;;7.75;5.75;;;23.50;54.30;;;;;;5028542;28;20037;-50
2021/05/28 11:07:02;;;;;;;7.05;5.88;;;23.90;52.30;;;;;;5028208;28;20025;-51
2021/05/28 11:09:38;;;;;;;9.70;4.88;;;22.90;53.30;;;;;;5027722;28;20022;-50
2021/05/28 11:12:08;;;;;;;7.00;6.28;;;23.40;59.00;;;;;;5028390;28;20377;-50
2021/05/28 11:14:37;;;;;;;7.47;5.93;;;23.90;53.80;;;;;;5028180;28;20109;-50
2021/05/28 11:17:02;;;;;;;10.57;6.88;;;23.60;56.30;;;;;;5028248;28;20033;-50
2021/05/28 11:19:43;;;;;;;11.38;10.13;;;22.90;56.60;;;;;;5027688;28;20484;-50
2021/05/28 11:22:27;;;;;;;10.82;8.10;;;22.90;56.20;;;;;;5028250;28;20033;-50
2021/05/28 11:24:53;;;;;;;11.30;8.75;;;23.50;61.80;;;;;;5028286;28;20029;-50
2021/05/28 11:27:24;;;;;;;9.07;7.50;;;22.50;58.90;;;;;;5028131;28;20036;-48
2021/05/28 11:30:15;;;;;;;11.93;10.45;;;23.00;59.40;;;;;;5028372;28;20133;-49
2021/05/28 11:32:44;;;;;;;12.40;9.23;;;22.20;57.30;;;;;;5028287;28;20041;-48
2021/05/28 11:35:30;;;;;;;14.90;9.63;;;22.20;61.00;;;;;;5026931;28;20090;-49
2021/05/28 11:38:00;;;;;;;9.70;7.88;;;21.80;62.90;;;;;;5027622;28;20086;-50
2021/05/28 11:40:35;;;;;;;10.70;7.10;;;21.40;60.60;;;;;;5026727;28;20124;-51
2021/05/28 11:43:06;;;;;;;7.32;6.00;;;22.10;65.90;;;;;;5028024;28;20032;-49
2021/05/28 11:45:33;;;;;;;10.57;9.05;;;22.40;60.80;;;;;;5026584;28;20570;-51
2021/05/28 11:47:59;;;;;;;8.55;7.10;;;23.70;57.90;;;;;;5029920;28;20033;-50
2021/05/28 11:50:25;;;;;;;8.93;7.70;;;24.10;59.40;;;;;;5031292;28;20044;-50
2021/05/28 11:53:00;;;;;;;8.35;7.32;;;24.40;58.50;;;;;;5031271;28;20072;-51
2021/05/28 11:55:27;;;;;;;7.45;6.25;;;24.50;57.00;;;;;;5031738;28;20049;-49
2021/05/28 11:58:02;;;;;;;6.60;5.55;;;24.60;56.10;;;;;;5030957;28;20033;-50
2021/05/28 12:00:29;;;;;;;6.90;6.05;;;24.80;58.00;;;;;;5031139;28;20030;-48
2021/05/28 12:02:57;;;;;;;6.10;5.60;;;23.80;54.90;;;;;;5031395;28;20021;-47
2021/05/28 12:05:37;;;;;;;8.20;5.30;;;23.00;59.50;;;;;;5031461;28;20414;-49
2021/05/28 12:08:19;;;;;;;7.75;4.38;;;22.60;59.90;;;;;;5031045;28;20022;-50
2021/05/28 12:10:48;;;;;;;6.63;4.28;;;22.50;60.70;;;;;;5031755;28;20391;-48
2021/05/28 12:13:26;;;;;;;6.75;3.70;;;21.90;61.30;;;;;;5031389;28;20246;-48
2021/05/28 12:16:05;;;;;;;4.85;4.00;;;21.20;61.80;;;;;;5031430;28;20067;-50
2021/05/28 12:18:31;;;;;;;6.32;3.70;;;21.10;63.50;;;;;;5030580;28;20029;-48
2021/05/28 12:21:03;;;;;;;6.35;3.63;;;20.90;67.60;;;;;;5031076;28;20029;-48
2021/05/28 12:23:30;;;;;;;4.45;3.78;;;21.10;66.20;;;;;;5031210;28;20279;-48
2021/05/28 12:26:01;;;;;;;6.45;4.10;;;20.90;64.80;;;;;;5031381;28;20576;-49
2021/05/28 12:28:32;;;;;;;6.68;4.65;;;20.30;65.20;;;;;;5030570;28;20079;-48
2021/05/28 12:31:20;;;;;;;8.43;4.53;;;20.20;70.70;;;;;;5031129;28;20522;-49
2021/05/28 12:33:50;;;;;;;7.28;4.25;;;20.50;67.90;;;;;;5029459;28;20025;-47
2021/05/28 12:36:17;;;;;;;8.70;3.72;;;20.40;64.90;;;;;;5029487;28;20439;-50
2021/05/28 12:38:49;;;;;;;5.68;3.67;;;20.20;66.40;;;;;;5030472;28;20037;-48